Time;durP1;ratioP1;P1;durP2;ratioP2;P2;SDS_P1;SDS_P2;PMS_P1;PMS_P2;Temp;Humidity;BMP_temperature;BMP_pressure;BME280_temperature;BME280_humidity;BME280_pressure;Samples;Min_cycle;Max_cycle;Signal;HPM_P1;HPM_P2
2022/05/13 00:01:17;;;;;;;4.45;1.08;;;;;;;;;;2090571;28;20516;-60
2022/05/13 00:02:36;;;;;;;3.33;1.40;;;;;;;;;;2088766;28;20025;-61
2022/05/13 00:03:55;;;;;;;6.03;1.45;;;;;;;;;;2088340;28;20423;-60
2022/05/13 00:05:14;;;;;;;3.53;1.42;;;;;;;;;;2089548;28;20025;-60
2022/05/13 00:06:35;;;;;;;5.75;1.33;;;;;;;;;;2080829;28;20025;-61
2022/05/13 00:07:53;;;;;;;8.30;1.55;;;;;;;;;;2085291;28;20025;-60
2022/05/13 00:09:13;;;;;;;3.72;1.20;;;;;;;;;;2085788;28;20060;-60
2022/05/13 00:10:32;;;;;;;11.35;1.95;;;;;;;;;;2080861;28;20037;-60
2022/05/13 00:11:50;;;;;;;4.22;1.42;;;;;;;;;;2078522;28;20033;-61
2022/05/13 00:13:09;;;;;;;3.58;1.30;;;;;;;;;;2076389;28;20037;-62
2022/05/13 00:14:28;;;;;;;8.23;1.80;;;;;;;;;;2079263;28;20386;-60
2022/05/13 00:15:48;;;;;;;8.48;2.05;;;;;;;;;;2084077;28;20025;-60
2022/05/13 00:17:08;;;;;;;7.07;2.08;;;;;;;;;;2090871;28;20472;-61
2022/05/13 00:18:27;;;;;;;7.88;1.80;;;;;;;;;;2088793;28;20068;-60
2022/05/13 00:19:46;;;;;;;6.40;1.60;;;;;;;;;;2088835;28;20483;-61
2022/05/13 00:21:05;;;;;;;8.00;1.23;;;;;;;;;;2090160;28;20052;-60
2022/05/13 00:22:25;;;;;;;5.32;1.10;;;;;;;;;;2088235;28;20028;-60
2022/05/13 00:23:43;;;;;;;7.10;1.90;;;;;;;;;;2089468;28;20111;-59
2022/05/13 00:25:02;;;;;;;6.97;1.65;;;;;;;;;;2089822;28;20025;-60
2022/05/13 00:26:21;;;;;;;4.15;1.40;;;;;;;;;;2089304;28;20048;-60
2022/05/13 00:27:40;;;;;;;5.05;1.10;;;;;;;;;;2089922;28;20033;-60
2022/05/13 00:28:59;;;;;;;4.38;1.40;;;;;;;;;;2088837;28;20391;-60
2022/05/13 00:30:18;;;;;;;5.47;1.90;;;;;;;;;;2088395;28;20033;-60
2022/05/13 00:31:38;;;;;;;4.80;1.10;;;;;;;;;;2089044;28;20501;-62
2022/05/13 00:32:58;;;;;;;6.57;1.38;;;;;;;;;;2087533;28;20033;-60
2022/05/13 00:34:18;;;;;;;5.10;1.48;;;;;;;;;;2089406;28;20403;-60
2022/05/13 00:35:37;;;;;;;4.57;1.40;;;;;;;;;;2089462;28;20029;-60
2022/05/13 00:36:56;;;;;;;6.55;1.40;;;;;;;;;;2089765;28;20438;-59
2022/05/13 00:38:15;;;;;;;8.52;1.80;;;;;;;;;;2090310;28;20487;-60
2022/05/13 00:39:34;;;;;;;4.82;1.52;;;;;;;;;;2083159;28;20499;-60
2022/05/13 00:40:53;;;;;;;5.50;1.83;;;;;;;;;;2079729;28;20029;-60
2022/05/13 00:42:17;;;;;;;7.82;1.83;;;;;;;;;;2078935;28;20038;-60
2022/05/13 00:43:41;;;;;;;4.07;1.60;;;;;;;;;;2079441;28;20022;-61
2022/05/13 00:45:00;;;;;;;6.25;1.70;;;;;;;;;;2078278;28;20022;-61
2022/05/13 00:46:20;;;;;;;5.32;1.17;;;;;;;;;;2080088;28;20104;-60
2022/05/13 00:47:39;;;;;;;4.53;1.65;;;;;;;;;;2080029;28;20049;-60
2022/05/13 00:49:01;;;;;;;6.53;1.83;;;;;;;;;;2079467;28;20025;-61
2022/05/13 00:50:20;;;;;;;4.82;1.30;;;;;;;;;;2079925;28;20082;-60
2022/05/13 00:51:41;;;;;;;10.05;1.85;;;;;;;;;;2079200;28;20029;-62
2022/05/13 00:53:02;;;;;;;4.82;1.30;;;;;;;;;;2080887;28;20034;-62
2022/05/13 00:54:21;;;;;;;5.35;1.20;;;;;;;;;;2077439;28;20034;-60
2022/05/13 00:55:43;;;;;;;4.18;1.48;;;;;;;;;;2078510;28;20112;-60
2022/05/13 00:57:02;;;;;;;4.85;1.58;;;;;;;;;;2080158;28;20033;-60
2022/05/13 00:58:21;;;;;;;6.00;1.33;;;;;;;;;;2068195;28;20058;-60
2022/05/13 00:59:42;;;;;;;4.68;1.05;;;;;;;;;;2075955;28;20037;-61
2022/05/13 01:01:01;;;;;;;6.65;1.48;;;;;;;;;;2079981;28;20037;-62
2022/05/13 01:02:21;;;;;;;6.10;2.17;;;;;;;;;;2079308;28;20068;-60
2022/05/13 01:03:40;;;;;;;9.52;2.05;;;;;;;;;;2078446;28;20034;-60
2022/05/13 01:04:59;;;;;;;6.13;1.15;;;;;;;;;;2081692;28;20455;-61
2022/05/13 01:06:20;;;;;;;7.18;1.83;;;;;;;;;;2077360;28;20026;-61
2022/05/13 01:07:39;;;;;;;7.97;1.60;;;;;;;;;;2077246;28;20029;-60
2022/05/13 01:08:59;;;;;;;8.18;1.65;;;;;;;;;;2079348;28;20018;-61
2022/05/13 01:10:23;;;;;;;4.43;1.38;;;;;;;;;;2080858;28;20026;-60
2022/05/13 01:11:43;;;;;;;4.25;1.55;;;;;;;;;;2078541;28;20424;-61
2022/05/13 01:13:06;;;;;;;6.75;1.63;;;;;;;;;;2077854;28;20809;-61
2022/05/13 01:14:33;;;;;;;6.28;2.10;;;;;;;;;;2080850;28;20033;-60
2022/05/13 01:15:52;;;;;;;5.15;1.38;;;;;;;;;;2079159;28;20041;-62
2022/05/13 01:18:55;;;;;;;6.18;1.63;;;;;;;;;;2080420;28;20065;-61
2022/05/13 01:20:17;;;;;;;9.05;2.10;;;;;;;;;;2078103;28;20037;-60
2022/05/13 01:21:36;;;;;;;5.55;1.65;;;;;;;;;;2077271;28;20488;-61
2022/05/13 01:22:57;;;;;;;6.47;1.58;;;;;;;;;;2078102;28;20115;-61
2022/05/13 01:24:17;;;;;;;6.47;1.48;;;;;;;;;;2076768;28;20061;-60
2022/05/13 01:25:38;;;;;;;7.15;1.77;;;;;;;;;;2077922;28;20025;-60
2022/05/13 01:26:57;;;;;;;7.53;1.42;;;;;;;;;;2080501;28;20499;-60
2022/05/13 01:28:18;;;;;;;7.70;2.05;;;;;;;;;;2070798;28;20033;-61
2022/05/13 01:29:36;;;;;;;3.92;1.30;;;;;;;;;;2080446;28;20670;-62
2022/05/13 01:30:58;;;;;;;4.15;1.40;;;;;;;;;;2077288;28;20041;-60
2022/05/13 01:32:17;;;;;;;4.55;1.65;;;;;;;;;;2079391;28;20496;-60
2022/05/13 01:33:37;;;;;;;8.98;1.85;;;;;;;;;;2077505;28;20491;-60
2022/05/13 01:34:56;;;;;;;3.03;1.10;;;;;;;;;;2071867;28;20030;-60
2022/05/13 01:36:15;;;;;;;8.88;1.98;;;;;;;;;;2073894;28;20037;-60
2022/05/13 01:37:35;;;;;;;5.78;1.40;;;;;;;;;;2078268;28;20025;-60
2022/05/13 01:38:55;;;;;;;8.30;2.03;;;;;;;;;;2081791;28;20033;-60
2022/05/13 01:40:14;;;;;;;6.03;1.42;;;;;;;;;;2080301;28;20049;-60
2022/05/13 01:41:34;;;;;;;8.40;2.05;;;;;;;;;;2079800;28;20037;-61
2022/05/13 01:42:53;;;;;;;8.57;1.80;;;;;;;;;;2080013;28;20025;-60
2022/05/13 01:44:11;;;;;;;7.68;1.90;;;;;;;;;;2080008;28;20029;-60
2022/05/13 01:45:31;;;;;;;7.20;1.95;;;;;;;;;;2079949;28;20484;-60
2022/05/13 01:46:50;;;;;;;9.40;1.60;;;;;;;;;;2080400;28;20034;-60
2022/05/13 01:48:09;;;;;;;9.88;1.55;;;;;;;;;;2080083;28;20100;-61
2022/05/13 01:49:28;;;;;;;9.90;1.63;;;;;;;;;;2081539;28;20033;-60
2022/05/13 01:50:47;;;;;;;8.00;1.75;;;;;;;;;;2071857;28;20116;-61
2022/05/13 01:52:06;;;;;;;3.25;1.67;;;;;;;;;;2075525;28;20030;-60
2022/05/13 01:53:25;;;;;;;7.97;1.95;;;;;;;;;;2080338;28;20026;-61
2022/05/13 01:54:44;;;;;;;15.35;1.55;;;;;;;;;;2081278;28;20062;-60
2022/05/13 01:56:03;;;;;;;5.35;1.60;;;;;;;;;;2081695;28;20037;-60
2022/05/13 01:57:22;;;;;;;6.22;1.48;;;;;;;;;;2081847;28;20025;-60
2022/05/13 01:58:41;;;;;;;5.50;1.45;;;;;;;;;;2080985;28;20037;-60
2022/05/13 02:00:01;;;;;;;4.75;1.95;;;;;;;;;;2081417;28;20037;-60
2022/05/13 02:01:20;;;;;;;5.38;1.50;;;;;;;;;;2080368;28;20435;-62
2022/05/13 02:04:17;;;;;;;6.35;1.92;;;;;;;;;;2081048;28;20064;-60
2022/05/13 02:05:36;;;;;;;8.02;1.90;;;;;;;;;;2071560;28;20030;-60
2022/05/13 02:06:55;;;;;;;8.15;2.13;;;;;;;;;;2075666;28;20025;-61
2022/05/13 02:08:15;;;;;;;9.15;2.20;;;;;;;;;;2079853;28;20029;-60
2022/05/13 02:09:35;;;;;;;7.97;1.63;;;;;;;;;;2081548;28;20037;-60
2022/05/13 02:10:54;;;;;;;10.38;1.80;;;;;;;;;;2078981;28;20030;-61
2022/05/13 02:12:13;;;;;;;5.00;1.45;;;;;;;;;;2080147;28;20037;-61
2022/05/13 02:13:32;;;;;;;8.57;1.80;;;;;;;;;;2079979;28;20029;-61
2022/05/13 02:14:51;;;;;;;7.53;2.00;;;;;;;;;;2080447;28;20476;-62
2022/05/13 02:16:11;;;;;;;6.90;1.38;;;;;;;;;;2081297;28;20064;-62
2022/05/13 02:17:30;;;;;;;7.07;2.13;;;;;;;;;;2081692;28;20073;-61
2022/05/13 02:18:49;;;;;;;5.90;1.77;;;;;;;;;;2079975;28;20022;-63
2022/05/13 02:20:08;;;;;;;7.50;1.58;;;;;;;;;;2081301;28;20026;-61
2022/05/13 02:21:27;;;;;;;9.52;1.83;;;;;;;;;;2078954;28;20021;-62
2022/05/13 02:22:46;;;;;;;11.35;2.25;;;;;;;;;;2070996;28;20037;-61
2022/05/13 02:24:05;;;;;;;10.20;2.08;;;;;;;;;;2077286;28;20018;-60
2022/05/13 02:25:24;;;;;;;5.75;1.65;;;;;;;;;;2071481;28;20030;-61
2022/05/13 02:26:44;;;;;;;4.93;1.90;;;;;;;;;;2076691;28;20025;-60
2022/05/13 02:28:03;;;;;;;5.53;1.50;;;;;;;;;;2078735;28;20395;-61
2022/05/13 02:29:22;;;;;;;7.65;2.30;;;;;;;;;;2067940;28;20038;-61
2022/05/13 02:30:41;;;;;;;6.55;1.83;;;;;;;;;;2076967;28;20037;-61
2022/05/13 02:32:00;;;;;;;7.40;1.83;;;;;;;;;;2080873;28;20491;-61
2022/05/13 02:33:19;;;;;;;7.55;1.90;;;;;;;;;;2082851;28;20033;-60
2022/05/13 02:34:38;;;;;;;5.85;2.13;;;;;;;;;;2083008;28;20041;-60
2022/05/13 02:35:59;;;;;;;8.65;1.83;;;;;;;;;;2081734;28;20029;-61
2022/05/13 02:37:18;;;;;;;5.78;1.70;;;;;;;;;;2082987;28;20033;-60
2022/05/13 02:38:38;;;;;;;10.00;2.15;;;;;;;;;;2082692;28;20029;-60
2022/05/13 02:39:57;;;;;;;7.88;2.13;;;;;;;;;;2090629;28;20073;-60
2022/05/13 02:41:16;;;;;;;6.55;1.65;;;;;;;;;;2082193;28;20029;-60
2022/05/13 02:42:35;;;;;;;7.60;1.75;;;;;;;;;;2087124;28;20155;-61
2022/05/13 02:43:54;;;;;;;6.53;1.77;;;;;;;;;;2080181;28;20029;-62
2022/05/13 02:45:14;;;;;;;5.93;1.85;;;;;;;;;;2088188;28;20025;-61
2022/05/13 02:46:33;;;;;;;6.78;2.03;;;;;;;;;;2090321;28;20033;-60
2022/05/13 02:47:52;;;;;;;9.90;1.80;;;;;;;;;;2090247;28;20461;-61
2022/05/13 02:49:10;;;;;;;10.52;2.13;;;;;;;;;;2090666;28;20025;-62
2022/05/13 02:50:30;;;;;;;9.20;2.03;;;;;;;;;;2090632;28;20033;-60
2022/05/13 02:51:49;;;;;;;11.63;1.92;;;;;;;;;;2091404;28;20490;-61
2022/05/13 02:53:08;;;;;;;5.95;1.70;;;;;;;;;;2089031;28;20107;-61
2022/05/13 02:54:27;;;;;;;9.68;2.05;;;;;;;;;;2090114;28;20036;-61
2022/05/13 02:55:46;;;;;;;7.55;1.98;;;;;;;;;;2089974;28;20033;-61
2022/05/13 02:57:05;;;;;;;5.32;1.77;;;;;;;;;;2090030;28;20036;-61
2022/05/13 02:58:24;;;;;;;10.57;2.70;;;;;;;;;;2091122;28;20460;-62
2022/05/13 02:59:43;;;;;;;10.93;2.45;;;;;;;;;;2090824;28;20084;-61
2022/05/13 03:01:03;;;;;;;9.13;2.20;;;;;;;;;;2090147;28;20036;-61
2022/05/13 03:02:22;;;;;;;12.93;2.28;;;;;;;;;;2089421;28;20483;-62
2022/05/13 03:03:42;;;;;;;5.75;1.75;;;;;;;;;;2081613;28;20034;-62
2022/05/13 03:05:01;;;;;;;4.07;1.80;;;;;;;;;;2079313;28;20030;-61
2022/05/13 03:06:20;;;;;;;8.75;2.10;;;;;;;;;;2084577;28;20446;-61
2022/05/13 03:07:40;;;;;;;10.25;2.30;;;;;;;;;;2088129;28;20029;-62
2022/05/13 03:08:59;;;;;;;9.30;2.08;;;;;;;;;;2081159;28;20021;-62
2022/05/13 03:10:18;;;;;;;12.43;2.28;;;;;;;;;;2087704;28;20021;-61
2022/05/13 03:11:36;;;;;;;9.80;2.40;;;;;;;;;;2089779;28;20029;-61
2022/05/13 03:12:59;;;;;;;8.18;2.30;;;;;;;;;;2090033;28;20025;-61
2022/05/13 03:14:17;;;;;;;7.85;2.33;;;;;;;;;;2089839;28;20025;-61
2022/05/13 03:15:37;;;;;;;7.18;1.88;;;;;;;;;;2081155;28;20116;-60
2022/05/13 03:16:56;;;;;;;15.15;2.22;;;;;;;;;;2086543;28;20025;-60
2022/05/13 03:18:15;;;;;;;9.07;2.45;;;;;;;;;;2090799;28;20024;-61
2022/05/13 03:19:37;;;;;;;12.18;2.50;;;;;;;;;;2090021;28;20112;-60
2022/05/13 03:20:56;;;;;;;9.77;1.88;;;;;;;;;;2090486;28;20107;-61
2022/05/13 03:22:16;;;;;;;7.32;2.33;;;;;;;;;;2090270;28;20025;-61
2022/05/13 03:23:35;;;;;;;11.40;2.03;;;;;;;;;;2090431;28;20021;-61
2022/05/13 03:24:54;;;;;;;7.32;1.85;;;;;;;;;;2089961;28;20025;-61
2022/05/13 03:26:14;;;;;;;16.38;1.73;;;;;;;;;;2089582;28;20029;-61
2022/05/13 03:27:33;;;;;;;4.28;1.75;;;;;;;;;;2081680;28;20021;-61
2022/05/13 03:28:51;;;;;;;7.85;2.03;;;;;;;;;;2086226;28;20033;-61
2022/05/13 03:30:12;;;;;;;6.70;2.13;;;;;;;;;;2088876;28;20033;-61
2022/05/13 03:31:32;;;;;;;7.03;1.90;;;;;;;;;;2090214;28;20487;-61
2022/05/13 03:32:51;;;;;;;8.25;2.08;;;;;;;;;;2090233;28;20025;-61
2022/05/13 03:34:11;;;;;;;10.52;2.47;;;;;;;;;;2081430;28;20419;-62
2022/05/13 03:35:29;;;;;;;7.50;1.85;;;;;;;;;;2087048;28;20036;-60
2022/05/13 03:36:51;;;;;;;8.75;2.10;;;;;;;;;;2090071;28;20029;-61
2022/05/13 03:38:11;;;;;;;7.22;2.05;;;;;;;;;;2090163;28;20404;-62
2022/05/13 03:39:30;;;;;;;10.23;2.60;;;;;;;;;;2088361;28;20033;-61
2022/05/13 03:40:49;;;;;;;9.60;2.40;;;;;;;;;;2087989;28;20037;-62
2022/05/13 03:42:09;;;;;;;12.45;2.40;;;;;;;;;;2081120;28;20030;-61
2022/05/13 03:43:28;;;;;;;7.82;2.13;;;;;;;;;;2078403;28;20053;-62
2022/05/13 03:44:46;;;;;;;10.18;2.30;;;;;;;;;;2086346;28;20028;-61
2022/05/13 03:46:05;;;;;;;8.73;2.50;;;;;;;;;;2089732;28;20032;-62
2022/05/13 03:47:24;;;;;;;7.25;2.17;;;;;;;;;;2089528;28;20092;-61
2022/05/13 03:48:43;;;;;;;9.90;2.00;;;;;;;;;;2088393;28;20403;-61
2022/05/13 03:50:03;;;;;;;11.15;2.30;;;;;;;;;;2090288;28;20029;-62
2022/05/13 03:51:22;;;;;;;7.88;2.05;;;;;;;;;;2090243;28;20112;-62
2022/05/13 03:52:42;;;;;;;7.03;1.90;;;;;;;;;;2089413;28;20021;-61
2022/05/13 03:54:02;;;;;;;8.30;1.75;;;;;;;;;;2089483;28;20029;-61
2022/05/13 03:55:22;;;;;;;9.95;2.15;;;;;;;;;;2080773;28;20025;-61
2022/05/13 03:56:42;;;;;;;6.82;2.45;;;;;;;;;;2076870;28;20029;-61
2022/05/13 03:58:01;;;;;;;7.03;2.03;;;;;;;;;;2087070;28;20033;-62
2022/05/13 03:59:20;;;;;;;14.32;2.47;;;;;;;;;;2090372;28;20021;-61
2022/05/13 04:00:39;;;;;;;11.43;1.75;;;;;;;;;;2089566;28;20033;-61
2022/05/13 04:01:57;;;;;;;9.70;2.45;;;;;;;;;;2088310;28;20476;-61
2022/05/13 04:03:17;;;;;;;12.18;2.50;;;;;;;;;;2090114;28;20029;-61
2022/05/13 04:09:30;;;;;;;14.13;2.65;;;;;;;;;;2089629;28;20437;-61
2022/05/13 04:10:49;;;;;;;12.57;2.40;;;;;;;;;;2080507;28;20030;-61
2022/05/13 04:17:02;;;;;;;10.85;2.00;;;;;;;;;;2088417;28;20495;-61
2022/05/13 04:18:21;;;;;;;7.13;2.33;;;;;;;;;;2090028;28;20441;-65
2022/05/13 04:19:40;;;;;;;11.00;2.58;;;;;;;;;;2089674;28;20407;-61
2022/05/13 04:21:00;;;;;;;6.43;2.15;;;;;;;;;;2081008;28;20034;-61
2022/05/13 04:22:19;;;;;;;11.02;1.98;;;;;;;;;;2085064;28;20088;-62
2022/05/13 04:23:38;;;;;;;7.53;2.08;;;;;;;;;;2088227;28;20052;-61
2022/05/13 04:24:57;;;;;;;10.15;2.40;;;;;;;;;;2089476;28;20024;-62
2022/05/13 04:26:17;;;;;;;10.43;2.10;;;;;;;;;;2089944;28;20033;-62
2022/05/13 04:27:36;;;;;;;7.82;2.10;;;;;;;;;;2078913;28;20018;-62
2022/05/13 04:28:55;;;;;;;5.22;1.70;;;;;;;;;;2084481;28;20487;-62
2022/05/13 04:30:14;;;;;;;8.10;2.20;;;;;;;;;;2089401;28;20379;-62
2022/05/13 04:31:35;;;;;;;7.60;2.20;;;;;;;;;;2090168;28;20041;-61
2022/05/13 04:32:54;;;;;;;11.48;2.53;;;;;;;;;;2089980;28;20029;-62
2022/05/13 04:34:13;;;;;;;8.05;2.40;;;;;;;;;;2090555;28;20025;-62
2022/05/13 04:35:32;;;;;;;10.50;2.10;;;;;;;;;;2088758;28;20478;-62
2022/05/13 04:36:51;;;;;;;9.63;2.20;;;;;;;;;;2089334;28;20499;-63
2022/05/13 04:38:10;;;;;;;15.80;2.70;;;;;;;;;;2080846;28;20037;-61
2022/05/13 04:39:29;;;;;;;7.72;2.30;;;;;;;;;;2085786;28;20037;-61
2022/05/13 04:40:48;;;;;;;7.90;2.35;;;;;;;;;;2081075;28;20056;-62
2022/05/13 04:43:46;;;;;;;10.13;2.20;;;;;;;;;;2090154;28;20483;-62
2022/05/13 04:45:05;;;;;;;5.28;1.73;;;;;;;;;;2090302;28;20021;-62
2022/05/13 04:46:25;;;;;;;10.05;2.45;;;;;;;;;;2089592;28;20108;-63
2022/05/13 04:49:22;;;;;;;8.40;2.30;;;;;;;;;;2088713;28;20026;-62
2022/05/13 04:50:42;;;;;;;9.40;2.10;;;;;;;;;;2080688;28;20037;-62
2022/05/13 04:52:01;;;;;;;7.20;1.90;;;;;;;;;;2083912;28;20037;-62
2022/05/13 04:53:21;;;;;;;15.73;2.90;;;;;;;;;;2089452;28;20036;-61
2022/05/13 04:54:41;;;;;;;10.23;2.65;;;;;;;;;;2082098;28;20025;-61
2022/05/13 04:56:00;;;;;;;8.60;2.13;;;;;;;;;;2085306;28;20403;-61
2022/05/13 04:57:19;;;;;;;13.07;2.85;;;;;;;;;;2085817;28;20041;-63
2022/05/13 04:58:38;;;;;;;11.45;2.40;;;;;;;;;;2079572;28;20041;-62
2022/05/13 04:59:57;;;;;;;11.13;2.40;;;;;;;;;;2085833;28;20025;-62
2022/05/13 05:01:17;;;;;;;13.88;1.90;;;;;;;;;;2088529;28;20040;-62
2022/05/13 05:02:36;;;;;;;9.52;2.10;;;;;;;;;;2079114;28;20025;-62
2022/05/13 05:03:55;;;;;;;13.38;2.20;;;;;;;;;;2076720;28;20030;-63
2022/05/13 05:05:14;;;;;;;7.50;1.80;;;;;;;;;;2086949;28;20053;-62
2022/05/13 05:06:33;;;;;;;10.35;2.35;;;;;;;;;;2079926;28;20508;-63
2022/05/13 05:07:54;;;;;;;8.13;2.38;;;;;;;;;;2076851;28;20727;-62
2022/05/13 05:09:13;;;;;;;9.93;2.72;;;;;;;;;;2077971;28;20025;-62
2022/05/13 05:10:32;;;;;;;9.65;2.20;;;;;;;;;;2086320;28;20021;-62
2022/05/13 05:11:51;;;;;;;10.93;2.20;;;;;;;;;;2088202;28;20119;-62
2022/05/13 05:13:15;;;;;;;12.88;2.38;;;;;;;;;;2090510;28;20025;-62
2022/05/13 05:14:35;;;;;;;10.02;2.60;;;;;;;;;;2089805;28;20029;-61
2022/05/13 05:15:54;;;;;;;8.52;1.88;;;;;;;;;;2089296;28;20032;-62
2022/05/13 05:17:13;;;;;;;9.43;2.45;;;;;;;;;;2087600;28;20033;-64
2022/05/13 05:18:36;;;;;;;14.27;3.10;;;;;;;;;;2079558;28;20029;-63
2022/05/13 05:19:55;;;;;;;;;;;;;;;;;;2077326;28;20021;-62
2022/05/13 05:21:14;;;;;;;8.85;2.03;;;;;;;;;;2083653;28;20007;-61
2022/05/13 05:22:33;;;;;;;8.98;2.15;;;;;;;;;;2087883;28;20018;-61
2022/05/13 05:23:52;;;;;;;9.02;2.08;;;;;;;;;;2089212;28;20021;-63
2022/05/13 05:25:11;;;;;;;7.80;1.95;;;;;;;;;;2089347;28;20025;-61
2022/05/13 05:26:30;;;;;;;7.72;1.50;;;;;;;;;;2089559;28;20036;-61
2022/05/13 05:27:49;;;;;;;10.93;2.10;;;;;;;;;;2087756;28;20479;-63
2022/05/13 05:29:08;;;;;;;1.85;0.90;;;;;;;;;;2088274;28;20072;-63
2022/05/13 05:30:27;;;;;;;9.95;2.00;;;;;;;;;;2087577;28;20025;-61
2022/05/13 05:31:46;;;;;;;7.05;2.05;;;;;;;;;;2086551;28;20104;-62
2022/05/13 05:33:05;;;;;;;9.43;2.63;;;;;;;;;;2087823;28;20399;-61
2022/05/13 05:34:24;;;;;;;18.33;2.67;;;;;;;;;;2089623;28;20159;-62
2022/05/13 05:35:43;;;;;;;12.55;2.33;;;;;;;;;;2088282;28;20037;-61
2022/05/13 05:37:02;;;;;;;18.08;2.78;;;;;;;;;;2088975;28;20029;-62
2022/05/13 05:38:21;;;;;;;11.35;2.58;;;;;;;;;;2089304;28;20037;-62
2022/05/13 05:39:40;;;;;;;7.00;2.05;;;;;;;;;;2085770;28;20054;-62
2022/05/13 05:40:59;;;;;;;9.52;2.17;;;;;;;;;;2086933;28;20017;-62
2022/05/13 05:42:18;;;;;;;10.45;2.45;;;;;;;;;;2087313;28;20022;-63
2022/05/13 05:43:38;;;;;;;7.82;2.20;;;;;;;;;;2078110;28;20049;-63
2022/05/13 05:44:57;;;;;;;8.15;2.00;;;;;;;;;;2083712;28;20025;-62
2022/05/13 05:46:16;;;;;;;11.50;2.15;;;;;;;;;;2086107;28;20025;-62
2022/05/13 05:47:35;;;;;;;7.18;1.95;;;;;;;;;;2086774;28;20029;-63
2022/05/13 05:48:54;;;;;;;5.60;1.85;;;;;;;;;;2085654;28;20479;-62
2022/05/13 05:50:16;;;;;;;5.55;2.10;;;;;;;;;;2085671;28;20036;-62
2022/05/13 05:51:35;;;;;;;13.45;1.95;;;;;;;;;;2084707;28;20440;-62
2022/05/13 05:52:54;;;;;;;9.88;2.28;;;;;;;;;;2088320;28;20116;-63
2022/05/13 05:57:28;;;;;;;7.18;1.73;;;;;;;;;;2086443;28;20021;-61
2022/05/13 05:58:47;;;;;;;4.75;1.55;;;;;;;;;;2087797;28;20053;-61
2022/05/13 06:00:07;;;;;;;3.70;1.45;;;;;;;;;;2086135;28;20017;-62
2022/05/13 06:01:27;;;;;;;12.05;2.53;;;;;;;;;;2085226;28;20096;-62
2022/05/13 06:02:46;;;;;;;5.32;1.77;;;;;;;;;;2077994;28;20029;-62
2022/05/13 06:04:06;;;;;;;4.30;1.58;;;;;;;;;;2083640;28;20017;-64
2022/05/13 06:05:25;;;;;;;9.50;2.70;;;;;;;;;;2084623;28;20033;-63
2022/05/13 06:06:44;;;;;;;8.27;2.28;;;;;;;;;;2087682;28;20464;-63
2022/05/13 06:08:04;;;;;;;9.43;2.30;;;;;;;;;;2085757;28;20017;-64
2022/05/13 06:09:22;;;;;;;14.82;1.80;;;;;;;;;;2085110;28;20021;-63
2022/05/13 06:10:41;;;;;;;6.35;1.67;;;;;;;;;;2076344;28;20034;-62
2022/05/13 06:12:01;;;;;;;10.88;2.80;;;;;;;;;;2083835;28;21256;-62
2022/05/13 06:13:20;;;;;;;11.77;2.17;;;;;;;;;;2085573;28;20401;-63
2022/05/13 06:14:39;;;;;;;10.93;2.17;;;;;;;;;;2076844;28;20447;-63
2022/05/13 06:15:58;;;;;;;5.38;1.83;;;;;;;;;;2082024;28;20434;-63
2022/05/13 06:17:17;;;;;;;7.82;1.77;;;;;;;;;;2086229;28;20037;-62
2022/05/13 06:18:37;;;;;;;12.50;2.53;;;;;;;;;;2085228;28;20041;-63
2022/05/13 06:19:55;;;;;;;9.50;2.20;;;;;;;;;;2083611;28;20032;-63
2022/05/13 06:21:14;;;;;;;8.30;1.58;;;;;;;;;;2086578;28;20088;-63
2022/05/13 06:22:33;;;;;;;9.45;2.25;;;;;;;;;;2088158;28;20033;-64
2022/05/13 06:23:52;;;;;;;8.23;1.80;;;;;;;;;;2087325;28;20040;-64
2022/05/13 06:25:12;;;;;;;8.73;2.50;;;;;;;;;;2086202;28;20025;-63
2022/05/13 06:26:31;;;;;;;10.23;1.90;;;;;;;;;;2079311;28;20527;-63
2022/05/13 06:27:51;;;;;;;9.98;2.70;;;;;;;;;;2082324;28;20037;-62
2022/05/13 06:29:10;;;;;;;10.20;2.40;;;;;;;;;;2077205;28;20029;-62
2022/05/13 06:30:30;;;;;;;10.32;2.30;;;;;;;;;;2074754;28;20038;-63
2022/05/13 06:31:50;;;;;;;11.15;2.00;;;;;;;;;;2084945;28;20029;-62
2022/05/13 06:33:09;;;;;;;4.70;1.85;;;;;;;;;;2086632;28;20037;-62
2022/05/13 06:34:28;;;;;;;4.60;1.70;;;;;;;;;;2085339;28;20018;-63
2022/05/13 06:35:46;;;;;;;11.50;1.95;;;;;;;;;;2078199;28;20653;-62
2022/05/13 06:37:05;;;;;;;5.22;1.45;;;;;;;;;;2080643;28;20030;-63
2022/05/13 06:38:25;;;;;;;11.07;2.25;;;;;;;;;;2085623;28;20029;-63
2022/05/13 06:39:44;;;;;;;8.35;2.42;;;;;;;;;;2088124;28;20044;-65
2022/05/13 06:41:03;;;;;;;9.10;1.88;;;;;;;;;;2087590;28;20037;-62
2022/05/13 06:42:22;;;;;;;7.88;1.90;;;;;;;;;;2089252;28;20029;-63
2022/05/13 06:43:41;;;;;;;7.03;1.88;;;;;;;;;;2088578;28;20029;-63
2022/05/13 06:45:01;;;;;;;4.78;1.67;;;;;;;;;;2089531;28;20516;-63
2022/05/13 06:46:20;;;;;;;10.25;2.47;;;;;;;;;;2089531;28;20069;-64
2022/05/13 06:47:39;;;;;;;9.07;1.77;;;;;;;;;;2089472;28;20029;-63
2022/05/13 06:48:58;;;;;;;6.15;1.95;;;;;;;;;;2089466;28;20024;-65
2022/05/13 06:50:18;;;;;;;7.43;1.98;;;;;;;;;;2088912;28;20025;-64
2022/05/13 06:51:37;;;;;;;6.78;1.73;;;;;;;;;;2089671;28;20103;-63
2022/05/13 06:52:57;;;;;;;7.80;2.10;;;;;;;;;;2087856;28;20021;-63
2022/05/13 06:54:15;;;;;;;10.38;2.40;;;;;;;;;;2079572;28;20364;-63
2022/05/13 06:55:35;;;;;;;7.13;1.25;;;;;;;;;;2084649;28;20025;-63
2022/05/13 06:56:54;;;;;;;4.80;1.75;;;;;;;;;;2089444;28;20037;-64
2022/05/13 06:58:14;;;;;;;5.03;1.75;;;;;;;;;;2089196;28;20026;-63
2022/05/13 06:59:33;;;;;;;8.05;1.80;;;;;;;;;;2088839;28;20455;-64
2022/05/13 07:00:52;;;;;;;6.40;2.08;;;;;;;;;;2087586;28;20051;-64
2022/05/13 07:02:10;;;;;;;10.10;2.35;;;;;;;;;;2088497;28;20040;-65
2022/05/13 07:03:30;;;;;;;9.82;2.08;;;;;;;;;;2089266;28;20025;-65
2022/05/13 07:04:50;;;;;;;3.85;1.67;;;;;;;;;;2087248;28;20434;-65
2022/05/13 07:06:09;;;;;;;10.13;2.33;;;;;;;;;;2088859;28;20032;-63
2022/05/13 07:07:28;;;;;;;8.77;1.70;;;;;;;;;;2088838;28;20108;-63
2022/05/13 07:08:50;;;;;;;18.83;2.30;;;;;;;;;;2089221;28;20033;-64
2022/05/13 07:10:09;;;;;;;7.50;2.03;;;;;;;;;;2088696;28;20429;-64
2022/05/13 07:11:28;;;;;;;10.45;2.05;;;;;;;;;;2088470;28;20032;-61
2022/05/13 07:12:47;;;;;;;11.95;2.22;;;;;;;;;;2080127;28;20029;-64
2022/05/13 07:14:06;;;;;;;5.25;2.05;;;;;;;;;;2085713;28;20124;-64
2022/05/13 07:15:26;;;;;;;8.85;1.90;;;;;;;;;;2089464;28;20056;-63
2022/05/13 07:16:45;;;;;;;3.90;1.65;;;;;;;;;;2084727;28;20025;-64
2022/05/13 07:18:04;;;;;;;10.07;2.38;;;;;;;;;;2087930;28;20499;-63
2022/05/13 07:19:22;;;;;;;5.15;1.48;;;;;;;;;;2091504;28;20111;-62
2022/05/13 07:20:41;;;;;;;10.63;1.42;;;;;;;;;;2089759;28;20112;-65
2022/05/13 07:22:00;;;;;;;7.50;2.00;;;;;;;;;;2080230;28;20029;-62
2022/05/13 07:23:19;;;;;;;9.18;1.73;;;;;;;;;;2081886;28;20021;-63
2022/05/13 07:24:38;;;;;;;8.75;1.67;;;;;;;;;;2089123;28;20115;-63
2022/05/13 07:25:57;;;;;;;6.15;1.70;;;;;;;;;;2090733;28;20435;-68
2022/05/13 07:27:16;;;;;;;8.88;2.00;;;;;;;;;;2091234;28;20029;-68
2022/05/13 07:28:36;;;;;;;7.13;1.70;;;;;;;;;;2090521;28;20025;-68
2022/05/13 07:29:55;;;;;;;7.95;1.60;;;;;;;;;;2091049;28;20049;-68
2022/05/13 07:31:14;;;;;;;8.52;1.38;;;;;;;;;;2082026;28;20117;-69
2022/05/13 07:32:33;;;;;;;5.65;1.50;;;;;;;;;;2076825;28;20021;-68
2022/05/13 07:33:52;;;;;;;5.45;1.40;;;;;;;;;;2087195;28;20068;-69
2022/05/13 07:35:11;;;;;;;5.30;1.42;;;;;;;;;;2082274;28;20033;-69
2022/05/13 07:36:30;;;;;;;3.38;1.27;;;;;;;;;;2078408;28;20546;-68
2022/05/13 07:37:49;;;;;;;3.40;1.00;;;;;;;;;;2086865;28;20028;-66
2022/05/13 07:42:23;;;;;;;13.07;1.38;;;;;;;;;;2089523;28;20021;-68
2022/05/13 07:43:45;;;;;;;5.35;1.25;;;;;;;;;;2090104;28;20022;-68
2022/05/13 07:45:04;;;;;;;4.82;1.10;;;;;;;;;;2090626;28;20029;-68
2022/05/13 07:46:24;;;;;;;8.38;1.63;;;;;;;;;;2090623;28;20021;-69
2022/05/13 07:47:43;;;;;;;5.43;1.10;;;;;;;;;;2089813;28;20024;-68
2022/05/13 07:49:04;;;;;;;3.72;1.13;;;;;;;;;;2081134;28;20546;-69
2022/05/13 07:50:24;;;;;;;6.30;1.52;;;;;;;;;;2078374;28;20045;-67
2022/05/13 07:51:43;;;;;;;7.07;1.52;;;;;;;;;;2086555;28;20494;-68
2022/05/13 07:53:03;;;;;;;5.60;1.25;;;;;;;;;;2090781;28;20104;-68
2022/05/13 07:54:22;;;;;;;4.20;1.10;;;;;;;;;;2091331;28;20029;-68
2022/05/13 07:55:41;;;;;;;4.15;1.10;;;;;;;;;;2090991;28;20037;-68
2022/05/13 07:57:00;;;;;;;2.63;0.90;;;;;;;;;;2090599;28;20025;-68
2022/05/13 07:58:19;;;;;;;4.85;1.20;;;;;;;;;;2089448;28;20029;-68
2022/05/13 08:01:17;;;;;;;6.22;1.48;;;;;;;;;;2090557;28;20503;-68
2022/05/13 08:02:36;;;;;;;5.47;1.45;;;;;;;;;;2090163;28;20025;-68
2022/05/13 08:03:56;;;;;;;2.28;0.88;;;;;;;;;;2090093;28;20025;-68
2022/05/13 08:05:15;;;;;;;3.80;1.40;;;;;;;;;;2090790;28;20111;-70
2022/05/13 08:06:34;;;;;;;3.83;1.15;;;;;;;;;;2089683;28;20026;-68
2022/05/13 08:08:00;;;;;;;4.80;1.42;;;;;;;;;;2090628;28;20021;-68
2022/05/13 08:09:19;;;;;;;4.00;1.05;;;;;;;;;;2088402;28;20025;-68
2022/05/13 08:10:39;;;;;;;4.70;1.33;;;;;;;;;;2090439;28;20029;-68
2022/05/13 08:11:58;;;;;;;6.20;1.38;;;;;;;;;;2090403;28;20423;-67
2022/05/13 08:13:16;;;;;;;4.07;1.23;;;;;;;;;;2089333;28;20435;-68
2022/05/13 08:14:36;;;;;;;4.50;1.10;;;;;;;;;;2090513;28;20037;-68
2022/05/13 08:15:54;;;;;;;5.72;1.23;;;;;;;;;;2081842;28;20520;-68
2022/05/13 08:17:13;;;;;;;7.13;1.48;;;;;;;;;;2087223;28;20029;-68
2022/05/13 08:18:32;;;;;;;3.88;1.30;;;;;;;;;;2081389;28;20033;-67
2022/05/13 08:19:52;;;;;;;3.45;0.90;;;;;;;;;;2086692;28;20491;-68